sensor_id;sensor_type;location;lat;lon;timestamp;pressure;altitude;pressure_sealevel;temperature;humidity
15487;BME280;7845;53.698;10.078;2023-10-13T00:01:59;100847.34;;;13.75;86.01
15487;BME280;7845;53.698;10.078;2023-10-13T00:04:29;100842.75;;;13.77;86.32
15487;BME280;7845;53.698;10.078;2023-10-13T00:06:57;100829.56;;;13.77;86.82
15487;BME280;7845;53.698;10.078;2023-10-13T00:09:24;100828.63;;;13.78;86.12
15487;BME280;7845;53.698;10.078;2023-10-13T00:11:51;100832.63;;;13.73;86.69
15487;BME280;7845;53.698;10.078;2023-10-13T00:14:18;100826.59;;;13.71;86.64
15487;BME280;7845;53.698;10.078;2023-10-13T00:16:47;100738.75;;;13.18;86.66
15487;BME280;7845;53.698;10.078;2023-10-13T00:19:38;100822.91;;;13.73;86.63
15487;BME280;7845;53.698;10.078;2023-10-13T00:22:05;100820.25;;;13.73;87.44
15487;BME280;7845;53.698;10.078;2023-10-13T00:24:35;100812.34;;;13.73;87.06
15487;BME280;7845;53.698;10.078;2023-10-13T00:27:14;100823.47;;;13.77;86.94
15487;BME280;7845;53.698;10.078;2023-10-13T00:29:56;100816.38;;;13.77;87.29
15487;BME280;7845;53.698;10.078;2023-10-13T00:32:46;100815.78;;;13.74;86.81
15487;BME280;7845;53.698;10.078;2023-10-13T00:35:17;100813.03;;;13.75;86.74
15487;BME280;7845;53.698;10.078;2023-10-13T00:38:00;100811.69;;;13.81;86.74
15487;BME280;7845;53.698;10.078;2023-10-13T00:40:30;100806.41;;;13.81;87.07
15487;BME280;7845;53.698;10.078;2023-10-13T00:42:56;100803.91;;;13.79;87.55
15487;BME280;7845;53.698;10.078;2023-10-13T00:45:43;100797.53;;;13.82;87.11
15487;BME280;7845;53.698;10.078;2023-10-13T00:48:11;100789.63;;;13.82;87.48
15487;BME280;7845;53.698;10.078;2023-10-13T00:50:38;100785.56;;;13.78;88.32
15487;BME280;7845;53.698;10.078;2023-10-13T00:53:04;100781.81;;;13.80;88.14
15487;BME280;7845;53.698;10.078;2023-10-13T00:55:29;100782.38;;;13.84;87.52
15487;BME280;7845;53.698;10.078;2023-10-13T00:58:00;100772.56;;;13.86;87.85
15487;BME280;7845;53.698;10.078;2023-10-13T01:00:29;100776.63;;;13.90;87.54
15487;BME280;7845;53.698;10.078;2023-10-13T01:02:55;100773.81;;;13.91;88.08
15487;BME280;7845;53.698;10.078;2023-10-13T01:05:30;100764.13;;;13.92;87.88
15487;BME280;7845;53.698;10.078;2023-10-13T01:08:00;100760.50;;;13.93;87.45
15487;BME280;7845;53.698;10.078;2023-10-13T01:10:27;100755.09;;;13.94;87.67
15487;BME280;7845;53.698;10.078;2023-10-13T01:12:54;100755.09;;;13.94;88.28
15487;BME280;7845;53.698;10.078;2023-10-13T01:15:19;100710.09;;;13.66;88.67
15487;BME280;7845;53.698;10.078;2023-10-13T01:17:49;100649.78;;;13.31;88.29
15487;BME280;7845;53.698;10.078;2023-10-13T01:20:15;100742.63;;;13.96;88.52
15487;BME280;7845;53.698;10.078;2023-10-13T01:22:50;100746.78;;;13.99;88.13
15487;BME280;7845;53.698;10.078;2023-10-13T01:25:25;100746.94;;;13.97;88.73
15487;BME280;7845;53.698;10.078;2023-10-13T01:27:53;100746.66;;;14.00;88.38
15487;BME280;7845;53.698;10.078;2023-10-13T01:30:20;100732.63;;;14.00;88.43
15487;BME280;7845;53.698;10.078;2023-10-13T01:32:50;100733.75;;;13.97;89.03
15487;BME280;7845;53.698;10.078;2023-10-13T01:35:17;100728.31;;;13.99;88.88
15487;BME280;7845;53.698;10.078;2023-10-13T01:37:45;100728.47;;;13.97;89.40
15487;BME280;7845;53.698;10.078;2023-10-13T01:40:11;100684.72;;;13.74;89.20
15487;BME280;7845;53.698;10.078;2023-10-13T01:42:37;100718.47;;;14.01;89.51
15487;BME280;7845;53.698;10.078;2023-10-13T01:45:04;100718.31;;;14.02;89.82
15487;BME280;7845;53.698;10.078;2023-10-13T01:47:32;100664.59;;;13.73;89.10
15487;BME280;7845;53.698;10.078;2023-10-13T01:50:02;100699.47;;;14.07;89.09
15487;BME280;7845;53.698;10.078;2023-10-13T01:52:47;100641.53;;;13.75;89.91
15487;BME280;7845;53.698;10.078;2023-10-13T01:55:13;100684.16;;;14.01;90.32
15487;BME280;7845;53.698;10.078;2023-10-13T01:57:39;100681.94;;;14.06;89.73
15487;BME280;7845;53.698;10.078;2023-10-13T02:00:08;100684.19;;;14.11;90.00
15487;BME280;7845;53.698;10.078;2023-10-13T02:02:45;100686.56;;;14.14;90.05
15487;BME280;7845;53.698;10.078;2023-10-13T02:05:11;100676.84;;;14.14;90.06
15487;BME280;7845;53.698;10.078;2023-10-13T02:07:37;100669.22;;;14.21;89.28
15487;BME280;7845;53.698;10.078;2023-10-13T02:10:04;100672.69;;;14.21;90.33
15487;BME280;7845;53.698;10.078;2023-10-13T02:12:31;100670.59;;;14.25;89.99
15487;BME280;7845;53.698;10.078;2023-10-13T02:15:11;100653.78;;;14.26;89.76
15487;BME280;7845;53.698;10.078;2023-10-13T02:17:46;100660.75;;;14.27;89.97
15487;BME280;7845;53.698;10.078;2023-10-13T02:20:16;100647.41;;;14.28;90.37
15487;BME280;7845;53.698;10.078;2023-10-13T02:22:42;100641.41;;;14.26;90.84
15487;BME280;7845;53.698;10.078;2023-10-13T02:25:20;100627.09;;;14.19;90.78
15487;BME280;7845;53.698;10.078;2023-10-13T02:28:07;100627.53;;;14.24;90.89
15487;BME280;7845;53.698;10.078;2023-10-13T02:30:42;100642.41;;;14.25;91.32
15487;BME280;7845;53.698;10.078;2023-10-13T02:33:14;100634.47;;;14.25;91.66
15487;BME280;7845;53.698;10.078;2023-10-13T02:35:42;100627.38;;;14.26;92.28
15487;BME280;7845;53.698;10.078;2023-10-13T02:38:15;100627.38;;;14.26;92.24
15487;BME280;7845;53.698;10.078;2023-10-13T02:40:41;100615.72;;;14.28;92.05
15487;BME280;7845;53.698;10.078;2023-10-13T02:43:09;100614.88;;;14.28;91.89
15487;BME280;7845;53.698;10.078;2023-10-13T02:45:37;100605.47;;;14.35;91.26
15487;BME280;7845;53.698;10.078;2023-10-13T02:48:05;100608.81;;;14.37;91.80
15487;BME280;7845;53.698;10.078;2023-10-13T02:50:42;100607.00;;;14.37;91.63
15487;BME280;7845;53.698;10.078;2023-10-13T02:53:11;100601.31;;;14.42;91.59
15487;BME280;7845;53.698;10.078;2023-10-13T02:55:50;100601.44;;;14.40;91.72
15487;BME280;7845;53.698;10.078;2023-10-13T02:58:15;100602.44;;;14.39;92.04
15487;BME280;7845;53.698;10.078;2023-10-13T03:00:40;100596.59;;;14.45;91.68
15487;BME280;7845;53.698;10.078;2023-10-13T03:03:06;100594.34;;;14.41;92.27
15487;BME280;7845;53.698;10.078;2023-10-13T03:05:35;100587.69;;;14.46;92.22
15487;BME280;7845;53.698;10.078;2023-10-13T03:08:04;100583.09;;;14.48;91.85
15487;BME280;7845;53.698;10.078;2023-10-13T03:10:29;100569.06;;;14.48;92.69
15487;BME280;7845;53.698;10.078;2023-10-13T03:12:55;100575.84;;;14.50;92.33
15487;BME280;7845;53.698;10.078;2023-10-13T03:15:20;100567.25;;;14.48;92.89
15487;BME280;7845;53.698;10.078;2023-10-13T03:17:53;100568.94;;;14.49;92.27
15487;BME280;7845;53.698;10.078;2023-10-13T03:20:21;100554.31;;;14.55;92.34
15487;BME280;7845;53.698;10.078;2023-10-13T03:22:59;100542.63;;;14.57;92.38
15487;BME280;7845;53.698;10.078;2023-10-13T03:25:24;100555.72;;;14.59;92.89
15487;BME280;7845;53.698;10.078;2023-10-13T03:27:53;100551.09;;;14.61;92.35
15487;BME280;7845;53.698;10.078;2023-10-13T03:30:19;100541.94;;;14.65;92.09
15487;BME280;7845;53.698;10.078;2023-10-13T03:32:48;100536.34;;;14.68;92.10
15487;BME280;7845;53.698;10.078;2023-10-13T03:35:19;100542.06;;;14.73;91.67
15487;BME280;7845;53.698;10.078;2023-10-13T03:37:51;100536.78;;;14.73;91.78
15487;BME280;7845;53.698;10.078;2023-10-13T03:40:16;100536.78;;;14.73;92.60
15487;BME280;7845;53.698;10.078;2023-10-13T03:42:59;100540.25;;;14.74;92.38
15487;BME280;7845;53.698;10.078;2023-10-13T03:45:45;100539.97;;;14.77;92.11
15487;BME280;7845;53.698;10.078;2023-10-13T03:48:18;100527.44;;;14.79;92.07
15487;BME280;7845;53.698;10.078;2023-10-13T03:50:50;100525.78;;;14.78;92.50
15487;BME280;7845;53.698;10.078;2023-10-13T03:53:40;100518.00;;;14.76;93.25
15487;BME280;7845;53.698;10.078;2023-10-13T03:56:21;100505.47;;;14.78;92.52
15487;BME280;7845;53.698;10.078;2023-10-13T03:59:04;100503.53;;;14.80;92.60
15487;BME280;7845;53.698;10.078;2023-10-13T04:01:36;100499.63;;;14.84;92.06
15487;BME280;7845;53.698;10.078;2023-10-13T04:04:19;100502.28;;;14.84;92.74
15487;BME280;7845;53.698;10.078;2023-10-13T04:07:04;100496.69;;;14.87;91.67
15487;BME280;7845;53.698;10.078;2023-10-13T04:09:36;100478.50;;;14.75;92.10
15487;BME280;7845;53.698;10.078;2023-10-13T04:12:06;100493.88;;;14.89;92.61
15487;BME280;7845;53.698;10.078;2023-10-13T04:14:40;100488.59;;;14.89;92.01
15487;BME280;7845;53.698;10.078;2023-10-13T04:17:25;100459.44;;;14.71;92.60
15487;BME280;7845;53.698;10.078;2023-10-13T04:19:58;100489.03;;;14.94;92.58
15487;BME280;7845;53.698;10.078;2023-10-13T04:25:24;100491.25;;;14.98;92.59
15487;BME280;7845;53.698;10.078;2023-10-13T04:28:13;100468.13;;;15.00;92.46
15487;BME280;7845;53.698;10.078;2023-10-13T04:33:28;100473.81;;;15.05;92.51
15487;BME280;7845;53.698;10.078;2023-10-13T04:36:06;100463.25;;;15.05;91.94
15487;BME280;7845;53.698;10.078;2023-10-13T04:38:52;100451.53;;;15.08;92.60
15487;BME280;7845;53.698;10.078;2023-10-13T04:41:29;100445.41;;;15.07;92.45
15487;BME280;7845;53.698;10.078;2023-10-13T04:44:03;100446.63;;;15.13;91.99
15487;BME280;7845;53.698;10.078;2023-10-13T04:46:47;100435.25;;;15.13;92.47
15487;BME280;7845;53.698;10.078;2023-10-13T04:49:12;100438.13;;;15.19;92.41
15487;BME280;7845;53.698;10.078;2023-10-13T04:51:57;100428.09;;;15.23;92.52
15487;BME280;7845;53.698;10.078;2023-10-13T04:54:41;100428.78;;;15.25;93.00
15487;BME280;7845;53.698;10.078;2023-10-13T04:57:10;100424.19;;;15.27;92.52
15487;BME280;7845;53.698;10.078;2023-10-13T04:59:54;100414.28;;;15.29;92.39
15487;BME280;7845;53.698;10.078;2023-10-13T05:02:35;100401.66;;;15.23;92.63
15487;BME280;7845;53.698;10.078;2023-10-13T05:05:04;100402.72;;;15.30;92.13
15487;BME280;7845;53.698;10.078;2023-10-13T05:07:36;100396.44;;;15.31;93.12
15487;BME280;7845;53.698;10.078;2023-10-13T05:10:19;100384.75;;;15.33;92.72
15487;BME280;7845;53.698;10.078;2023-10-13T05:13:03;100384.59;;;15.35;93.14
15487;BME280;7845;53.698;10.078;2023-10-13T05:15:48;100375.69;;;15.36;93.61
15487;BME280;7845;53.698;10.078;2023-10-13T05:18:33;100373.69;;;15.38;93.03
15487;BME280;7845;53.698;10.078;2023-10-13T05:21:17;100369.78;;;15.42;92.73
15487;BME280;7845;53.698;10.078;2023-10-13T05:24:02;100372.13;;;15.45;92.95
15487;BME280;7845;53.698;10.078;2023-10-13T05:26:47;100372.53;;;15.50;92.81
15487;BME280;7845;53.698;10.078;2023-10-13T05:29:31;100362.78;;;15.50;92.93
15487;BME280;7845;53.698;10.078;2023-10-13T05:32:15;100363.63;;;15.51;93.10
15487;BME280;7845;53.698;10.078;2023-10-13T05:34:58;100346.75;;;15.52;93.32
15487;BME280;7845;53.698;10.078;2023-10-13T05:37:42;100351.06;;;15.53;93.11
15487;BME280;7845;53.698;10.078;2023-10-13T05:40:26;100348.59;;;15.51;93.92
15487;BME280;7845;53.698;10.078;2023-10-13T05:43:10;100349.25;;;15.53;93.79
15487;BME280;7845;53.698;10.078;2023-10-13T05:46:00;100345.47;;;15.56;93.80
15487;BME280;7845;53.698;10.078;2023-10-13T05:48:44;100343.34;;;15.60;93.78
15487;BME280;7845;53.698;10.078;2023-10-13T05:51:29;100334.59;;;15.59;93.88
15487;BME280;7845;53.698;10.078;2023-10-13T05:53:58;100335.63;;;15.66;93.88
15487;BME280;7845;53.698;10.078;2023-10-13T05:56:43;100336.47;;;15.67;93.47
15487;BME280;7845;53.698;10.078;2023-10-13T05:59:28;100340.63;;;15.69;93.82
15487;BME280;7845;53.698;10.078;2023-10-13T06:02:14;100337.69;;;15.72;94.66
15487;BME280;7845;53.698;10.078;2023-10-13T06:05:04;100336.56;;;15.75;94.17
15487;BME280;7845;53.698;10.078;2023-10-13T06:07:48;100333.47;;;15.79;94.07
15487;BME280;7845;53.698;10.078;2023-10-13T06:10:32;100333.97;;;15.83;94.31
15487;BME280;7845;53.698;10.078;2023-10-13T06:13:16;100327.53;;;15.85;93.84
15487;BME280;7845;53.698;10.078;2023-10-13T06:16:05;100328.72;;;15.91;94.01
15487;BME280;7845;53.698;10.078;2023-10-13T06:18:49;100318.84;;;15.93;94.12
15487;BME280;7845;53.698;10.078;2023-10-13T06:21:32;100314.06;;;15.96;94.22
15487;BME280;7845;53.698;10.078;2023-10-13T06:24:16;100314.59;;;16.00;94.22
15487;BME280;7845;53.698;10.078;2023-10-13T06:27:00;100316.59;;;16.06;94.09
15487;BME280;7845;53.698;10.078;2023-10-13T06:29:45;100313.78;;;16.08;93.68
15487;BME280;7845;53.698;10.078;2023-10-13T06:32:11;100316.28;;;16.09;93.75
15487;BME280;7845;53.698;10.078;2023-10-13T06:34:37;100282.22;;;15.88;93.48
15487;BME280;7845;53.698;10.078;2023-10-13T06:37:04;100309.38;;;16.16;93.19
15487;BME280;7845;53.698;10.078;2023-10-13T06:39:48;100306.59;;;16.18;93.58
15487;BME280;7845;53.698;10.078;2023-10-13T06:42:13;100269.38;;;15.93;93.85
15487;BME280;7845;53.698;10.078;2023-10-13T06:44:38;100301.28;;;16.18;94.80
15487;BME280;7845;53.698;10.078;2023-10-13T06:47:05;100299.16;;;16.21;94.06
15487;BME280;7845;53.698;10.078;2023-10-13T06:49:30;100295.38;;;16.24;94.77
15487;BME280;7845;53.698;10.078;2023-10-13T06:52:04;100292.25;;;16.28;94.49
15487;BME280;7845;53.698;10.078;2023-10-13T06:54:32;100298.88;;;16.32;94.43
15487;BME280;7845;53.698;10.078;2023-10-13T06:56:58;100236.34;;;16.05;94.36
15487;BME280;7845;53.698;10.078;2023-10-13T06:59:24;100294.78;;;16.46;93.94
15487;BME280;7845;53.698;10.078;2023-10-13T07:01:51;100285.53;;;16.50;94.12
15487;BME280;7845;53.698;10.078;2023-10-13T07:04:17;100283.41;;;16.53;94.17
15487;BME280;7845;53.698;10.078;2023-10-13T07:06:44;100281.47;;;16.56;94.27
15487;BME280;7845;53.698;10.078;2023-10-13T07:09:18;100271.72;;;16.56;94.23
15487;BME280;7845;53.698;10.078;2023-10-13T07:12:03;100260.72;;;16.51;94.39
15487;BME280;7845;53.698;10.078;2023-10-13T07:14:31;100260.09;;;16.57;94.44
15487;BME280;7845;53.698;10.078;2023-10-13T07:17:02;100263.25;;;16.61;94.34
15487;BME280;7845;53.698;10.078;2023-10-13T07:19:30;100252.34;;;16.64;94.52
15487;BME280;7845;53.698;10.078;2023-10-13T07:21:56;100249.38;;;16.67;94.91
15487;BME280;7845;53.698;10.078;2023-10-13T07:24:28;100246.41;;;16.70;94.90
15487;BME280;7845;53.698;10.078;2023-10-13T07:27:00;100234.31;;;16.75;94.01
15487;BME280;7845;53.698;10.078;2023-10-13T07:29:30;100241.28;;;16.76;94.09
15487;BME280;7845;53.698;10.078;2023-10-13T07:32:02;100199.34;;;16.56;94.25
15487;BME280;7845;53.698;10.078;2023-10-13T07:34:38;100223.91;;;16.82;93.83
15487;BME280;7845;53.698;10.078;2023-10-13T07:37:04;100158.88;;;16.53;94.47
15487;BME280;7845;53.698;10.078;2023-10-13T07:39:33;100216.94;;;16.89;94.25
15487;BME280;7845;53.698;10.078;2023-10-13T07:41:59;100214.47;;;16.87;94.08
15487;BME280;7845;53.698;10.078;2023-10-13T07:44:33;100211.84;;;16.87;94.42
15487;BME280;7845;53.698;10.078;2023-10-13T07:47:02;100203.69;;;16.89;93.67
15487;BME280;7845;53.698;10.078;2023-10-13T07:49:31;100190.63;;;16.87;93.69
15487;BME280;7845;53.698;10.078;2023-10-13T07:52:00;100182.47;;;16.89;94.08
15487;BME280;7845;53.698;10.078;2023-10-13T07:54:31;100167.06;;;16.92;94.21
15487;BME280;7845;53.698;10.078;2023-10-13T07:56:57;100169.06;;;16.90;93.81
15487;BME280;7845;53.698;10.078;2023-10-13T07:59:22;100171.06;;;16.96;94.52
15487;BME280;7845;53.698;10.078;2023-10-13T08:01:49;100163.59;;;17.00;93.63
15487;BME280;7845;53.698;10.078;2023-10-13T08:04:34;100151.66;;;16.96;93.98
15487;BME280;7845;53.698;10.078;2023-10-13T08:07:01;100088.53;;;16.59;94.61
15487;BME280;7845;53.698;10.078;2023-10-13T08:09:37;100136.25;;;16.91;95.17
15487;BME280;7845;53.698;10.078;2023-10-13T08:12:06;100087.72;;;16.67;94.64
15487;BME280;7845;53.698;10.078;2023-10-13T08:14:35;100117.69;;;16.99;94.75
15487;BME280;7845;53.698;10.078;2023-10-13T08:17:03;100120.34;;;17.08;94.34
15487;BME280;7845;53.698;10.078;2023-10-13T08:19:33;100116.38;;;17.12;94.55
15487;BME280;7845;53.698;10.078;2023-10-13T08:22:06;100111.19;;;17.26;93.97
15487;BME280;7845;53.698;10.078;2023-10-13T08:24:44;100106.72;;;17.27;94.53
15487;BME280;7845;53.698;10.078;2023-10-13T08:27:09;100110.06;;;17.29;93.38
15487;BME280;7845;53.698;10.078;2023-10-13T08:29:49;100107.91;;;17.24;93.54
15487;BME280;7845;53.698;10.078;2023-10-13T08:35:02;100104.59;;;17.22;93.74
15487;BME280;7845;53.698;10.078;2023-10-13T08:37:31;100095.81;;;17.22;93.65
15487;BME280;7845;53.698;10.078;2023-10-13T08:40:11;100055.38;;;16.95;93.24
15487;BME280;7845;53.698;10.078;2023-10-13T08:42:44;100103.28;;;17.18;93.72
15487;BME280;7845;53.698;10.078;2023-10-13T08:45:16;100096.78;;;17.21;93.51
15487;BME280;7845;53.698;10.078;2023-10-13T08:47:51;100087.50;;;17.17;93.66
15487;BME280;7845;53.698;10.078;2023-10-13T08:53:31;100102.94;;;17.13;93.24
15487;BME280;7845;53.698;10.078;2023-10-13T08:56:03;100109.91;;;17.14;93.67
15487;BME280;7845;53.698;10.078;2023-10-13T08:58:38;100093.00;;;17.07;93.97
15487;BME280;7845;53.698;10.078;2023-10-13T09:01:19;100094.47;;;17.18;94.03
15487;BME280;7845;53.698;10.078;2023-10-13T09:04:17;100083.38;;;17.22;94.40
15487;BME280;7845;53.698;10.078;2023-10-13T09:06:47;100079.69;;;17.23;94.01
15487;BME280;7845;53.698;10.078;2023-10-13T09:09:27;100075.22;;;17.24;93.94
15487;BME280;7845;53.698;10.078;2023-10-13T09:11:55;100072.25;;;17.27;94.13
15487;BME280;7845;53.698;10.078;2023-10-13T09:14:39;100071.41;;;17.26;93.83
15487;BME280;7845;53.698;10.078;2023-10-13T09:17:13;100081.22;;;17.26;93.85
15487;BME280;7845;53.698;10.078;2023-10-13T09:19:52;100086.38;;;17.19;94.01
15487;BME280;7845;53.698;10.078;2023-10-13T09:22:29;100077.56;;;17.19;94.77
15487;BME280;7845;53.698;10.078;2023-10-13T09:25:03;100084.50;;;17.20;94.98
15487;BME280;7845;53.698;10.078;2023-10-13T09:27:40;100068.94;;;17.25;95.43
15487;BME280;7845;53.698;10.078;2023-10-13T09:30:06;100061.47;;;17.28;95.66
15487;BME280;7845;53.698;10.078;2023-10-13T09:33:02;100061.75;;;17.49;95.14
15487;BME280;7845;53.698;10.078;2023-10-13T09:35:30;100073.84;;;17.60;94.32
15487;BME280;7845;53.698;10.078;2023-10-13T09:38:00;100052.75;;;17.67;93.60
15487;BME280;7845;53.698;10.078;2023-10-13T09:40:27;100055.06;;;17.70;93.42
15487;BME280;7845;53.698;10.078;2023-10-13T09:43:11;100058.84;;;17.75;93.69
15487;BME280;7845;53.698;10.078;2023-10-13T09:45:41;100048.81;;;17.93;93.62
15487;BME280;7845;53.698;10.078;2023-10-13T09:48:23;100054.88;;;18.10;92.61
15487;BME280;7845;53.698;10.078;2023-10-13T09:50:58;100038.47;;;18.29;92.44
15487;BME280;7845;53.698;10.078;2023-10-13T09:53:24;100019.03;;;18.29;91.53
15487;BME280;7845;53.698;10.078;2023-10-13T09:55:56;100042.81;;;18.53;90.62
15487;BME280;7845;53.698;10.078;2023-10-13T09:58:27;100041.47;;;18.49;90.34
15487;BME280;7845;53.698;10.078;2023-10-13T10:01:02;100038.22;;;18.39;90.84
15487;BME280;7845;53.698;10.078;2023-10-13T10:03:50;100028.78;;;18.36;91.24
15487;BME280;7845;53.698;10.078;2023-10-13T10:06:22;99973.56;;;18.01;90.96
15487;BME280;7845;53.698;10.078;2023-10-13T10:09:04;100026.16;;;18.28;90.81
15487;BME280;7845;53.698;10.078;2023-10-13T10:11:53;100013.28;;;18.17;90.52
15487;BME280;7845;53.698;10.078;2023-10-13T10:14:45;100007.50;;;18.14;90.90
15487;BME280;7845;53.698;10.078;2023-10-13T10:17:14;100007.19;;;18.17;91.17
15487;BME280;7845;53.698;10.078;2023-10-13T10:19:47;100002.97;;;18.22;90.98
15487;BME280;7845;53.698;10.078;2023-10-13T10:22:13;99997.13;;;18.27;90.59
15487;BME280;7845;53.698;10.078;2023-10-13T10:24:58;99988.22;;;18.20;90.60
15487;BME280;7845;53.698;10.078;2023-10-13T10:27:26;99975.81;;;18.12;91.14
15487;BME280;7845;53.698;10.078;2023-10-13T10:29:53;99938.81;;;17.88;91.02
15487;BME280;7845;53.698;10.078;2023-10-13T10:32:19;99975.78;;;18.20;91.33
15487;BME280;7845;53.698;10.078;2023-10-13T10:34:44;99967.81;;;18.35;90.59
15487;BME280;7845;53.698;10.078;2023-10-13T10:37:09;99881.28;;;18.03;90.40
15487;BME280;7845;53.698;10.078;2023-10-13T10:39:35;99960.44;;;18.68;89.89
15487;BME280;7845;53.698;10.078;2023-10-13T10:42:11;99959.25;;;18.85;89.34
15487;BME280;7845;53.698;10.078;2023-10-13T10:44:49;99956.69;;;18.91;88.79
15487;BME280;7845;53.698;10.078;2023-10-13T10:47:20;99947.25;;;18.89;88.54
15487;BME280;7845;53.698;10.078;2023-10-13T10:50:04;99880.59;;;18.61;89.18
15487;BME280;7845;53.698;10.078;2023-10-13T10:52:44;99931.75;;;18.92;88.88
15487;BME280;7845;53.698;10.078;2023-10-13T10:55:12;99927.91;;;18.95;88.66
15487;BME280;7845;53.698;10.078;2023-10-13T10:57:39;99925.59;;;18.92;88.90
15487;BME280;7845;53.698;10.078;2023-10-13T11:00:20;99917.25;;;18.95;89.08
15487;BME280;7845;53.698;10.078;2023-10-13T11:02:56;99906.25;;;18.98;88.50
15487;BME280;7845;53.698;10.078;2023-10-13T11:05:23;99920.75;;;19.10;89.04
15487;BME280;7845;53.698;10.078;2023-10-13T11:07:57;99909.56;;;19.15;88.67
15487;BME280;7845;53.698;10.078;2023-10-13T11:10:23;99899.91;;;19.28;88.12
15487;BME280;7845;53.698;10.078;2023-10-13T11:12:57;99900.09;;;19.41;88.15
15487;BME280;7845;53.698;10.078;2023-10-13T11:15:46;99886.22;;;19.46;87.98
15487;BME280;7845;53.698;10.078;2023-10-13T11:18:13;99871.50;;;19.50;87.29
15487;BME280;7845;53.698;10.078;2023-10-13T11:20:46;99854.13;;;19.54;87.44
15487;BME280;7845;53.698;10.078;2023-10-13T11:23:12;99846.09;;;19.47;87.31
15487;BME280;7845;53.698;10.078;2023-10-13T11:25:38;99849.31;;;19.43;87.84
15487;BME280;7845;53.698;10.078;2023-10-13T11:28:14;99825.00;;;19.46;87.95
15487;BME280;7845;53.698;10.078;2023-10-13T11:30:43;99835.06;;;19.50;87.97
15487;BME280;7845;53.698;10.078;2023-10-13T11:33:17;99819.53;;;19.54;88.21
15487;BME280;7845;53.698;10.078;2023-10-13T11:35:54;99819.28;;;19.70;87.77
15487;BME280;7845;53.698;10.078;2023-10-13T11:43:47;99808.31;;;19.80;87.11
15487;BME280;7845;53.698;10.078;2023-10-13T11:46:18;99802.19;;;19.86;87.67
15487;BME280;7845;53.698;10.078;2023-10-13T11:49:04;99799.97;;;19.89;87.35
15487;BME280;7845;53.698;10.078;2023-10-13T11:51:38;99791.66;;;19.99;87.74
15487;BME280;7845;53.698;10.078;2023-10-13T11:54:03;99796.25;;;20.12;87.15
15487;BME280;7845;53.698;10.078;2023-10-13T11:56:28;99787.59;;;20.31;86.87
15487;BME280;7845;53.698;10.078;2023-10-13T11:58:54;99786.66;;;20.45;86.15
15487;BME280;7845;53.698;10.078;2023-10-13T12:01:23;99758.97;;;20.46;85.50
15487;BME280;7845;53.698;10.078;2023-10-13T12:04:09;99761.59;;;20.33;85.28
15487;BME280;7845;53.698;10.078;2023-10-13T12:06:53;99773.75;;;20.21;85.77
15487;BME280;7845;53.698;10.078;2023-10-13T12:09:40;99770.09;;;20.22;85.81
15487;BME280;7845;53.698;10.078;2023-10-13T12:12:25;99762.53;;;20.25;85.68
15487;BME280;7845;53.698;10.078;2023-10-13T12:14:51;99757.19;;;20.25;85.86
15487;BME280;7845;53.698;10.078;2023-10-13T12:17:30;99723.00;;;20.29;85.86
15487;BME280;7845;53.698;10.078;2023-10-13T12:20:05;99736.38;;;20.35;85.87
15487;BME280;7845;53.698;10.078;2023-10-13T12:22:32;99730.44;;;20.40;85.59
15487;BME280;7845;53.698;10.078;2023-10-13T12:25:20;99733.16;;;20.46;85.23
15487;BME280;7845;53.698;10.078;2023-10-13T12:27:54;99733.75;;;20.48;85.27
15487;BME280;7845;53.698;10.078;2023-10-13T12:30:26;99733.19;;;20.60;84.28
15487;BME280;7845;53.698;10.078;2023-10-13T12:33:02;99737.50;;;20.54;84.50
15487;BME280;7845;53.698;10.078;2023-10-13T12:35:40;99731.91;;;20.42;84.65
15487;BME280;7845;53.698;10.078;2023-10-13T12:38:24;99666.94;;;20.16;84.39
15487;BME280;7845;53.698;10.078;2023-10-13T12:41:08;99719.56;;;20.41;84.83
15487;BME280;7845;53.698;10.078;2023-10-13T12:43:51;99687.22;;;20.17;84.34
15487;BME280;7845;53.698;10.078;2023-10-13T12:46:36;99719.78;;;20.40;84.37
15487;BME280;7845;53.698;10.078;2023-10-13T12:49:20;99711.78;;;20.40;84.20
15487;BME280;7845;53.698;10.078;2023-10-13T12:52:04;99712.81;;;20.45;84.30
15487;BME280;7845;53.698;10.078;2023-10-13T12:54:30;99713.28;;;20.56;83.88
15487;BME280;7845;53.698;10.078;2023-10-13T12:57:04;99704.72;;;20.67;83.58
15487;BME280;7845;53.698;10.078;2023-10-13T12:59:34;99721.78;;;20.79;82.91
15487;BME280;7845;53.698;10.078;2023-10-13T13:01:59;99710.09;;;20.86;82.63
15487;BME280;7845;53.698;10.078;2023-10-13T13:04:25;99709.91;;;20.81;81.88
15487;BME280;7845;53.698;10.078;2023-10-13T13:06:56;99705.78;;;20.79;81.88
15487;BME280;7845;53.698;10.078;2023-10-13T13:09:22;99703.47;;;20.69;82.17
15487;BME280;7845;53.698;10.078;2023-10-13T13:11:53;99700.59;;;20.64;82.49
15487;BME280;7845;53.698;10.078;2023-10-13T13:14:25;99707.38;;;20.67;82.61
15487;BME280;7845;53.698;10.078;2023-10-13T13:16:57;99705.75;;;20.72;83.20
15487;BME280;7845;53.698;10.078;2023-10-13T13:19:34;99704.75;;;20.80;82.97
15487;BME280;7845;53.698;10.078;2023-10-13T13:22:06;99711.72;;;20.81;82.45
15487;BME280;7845;53.698;10.078;2023-10-13T13:24:38;99727.31;;;20.77;82.36
15487;BME280;7845;53.698;10.078;2023-10-13T13:27:11;99725.66;;;20.76;82.58
15487;BME280;7845;53.698;10.078;2023-10-13T13:29:40;99697.13;;;20.70;83.07
15487;BME280;7845;53.698;10.078;2023-10-13T13:32:05;99661.88;;;20.75;83.29
15487;BME280;7845;53.698;10.078;2023-10-13T13:34:32;99675.00;;;20.83;83.49
15487;BME280;7845;53.698;10.078;2023-10-13T13:36:57;99684.06;;;20.88;83.42
15487;BME280;7845;53.698;10.078;2023-10-13T13:39:27;99668.47;;;20.92;83.04
15487;BME280;7845;53.698;10.078;2023-10-13T13:41:57;99662.13;;;20.93;82.75
15487;BME280;7845;53.698;10.078;2023-10-13T13:44:25;99655.53;;;20.95;82.05